Aircraft
UPR1037 PT-CAA C 208B
KPBH
Price County Airport
KMML
Southwest Minnesota Regional Airport - Marshall/Ryan Field
Pilot:: Klebson
Aircraft:: Black Square Caravan Professional Gear PT-ATY
Alternate: KMSP
Network: ivao
FLIGHT DETAILS
Distance: 242nm Duration 01h 12m
Cruise Speed: Flight Level: 8000
Validation: Validated Type Charter
Flight Fuel
ZFW: 1992
Block Fuel/Initial FOB: 517
Flight Fuel: 180
Cargo
Passengers: 6
Cargo: 0
ROUTE
ROUTE: LAYVU V413 EAU V26 RWF T322 GHENT
REMARKS:
DATE
Date: 26-04-28
Departure Time: 1937
Cargo: 0
FLIGHT DETAILS
Crashed: No
Validator Comments: Validado por Claudenir
Flight Rating: 95
LANDING ANALYSIS
Landing wind: 350º/13 kt
Landing heading: 305º
Landing VS:: -96 ft/min
Landing IAS:: 80 kt
Landing Force G: 1 G
Landing Bank: -1
Landing Pitch: -4
Landing Flaps: 33
Navigation Lights: ON
Landing Lights: ON
Beacon Lights: ON
Strobe Lights: ON
viserfly

ALTITUDE CHART

viserfly

MAIN EVENTS

DATE EVENT IAS ALTITUDE
2026-04-28 19:37:19 FLYacars version 1.3.4 0 1478
2026-04-28 19:37:20 Aircraft boarding in progress 0 1478
2026-04-28 19:37:30 Aircraft taxiing to runway 5 1478
2026-04-28 19:37:45 Stall flag 58 1479
2026-04-28 19:37:45 Detected Take-off roll, HDG 255, IAS 58kt, GS 61kt, G-force 1.0g, Pitch -10.8deg, Bank 0.1deg, Wind 270/01kt, Temp 15°C 58 1479
2026-04-28 19:37:45 Airborne 58 1479
2026-04-28 19:38:43 FLAPS 33% 90kt, ALT 2217ft 90 2217
2026-04-28 19:38:46 FLAPS 0% 95kt, ALT 2236ft 95 2236
2026-04-28 19:49:42 Aircraft on Top Of Climb at 7760ft, IAS 149kt, GS 167kt, HDG 222deg, TAT -3deg, WIND 304/24kt 149 7760
2026-04-28 20:46:05 Aircraft on Top Of Descent at 7494ft, IAS 170kt, GS 168kt, HDG 258deg, TAT -5deg, WIND 290/21kt 170 7494
2026-04-28 20:48:41 FLAPS 33% 127kt, ALT 2125ft 127 2125
2026-04-28 20:50:15 Landed at destination with a landing rate of -96fpm, G-force 1.0g, Pitch -4.3deg, Bank -0.7deg, HDG 305deg, IAS 80kt, GS 71kt, Wind 350/13kt, Temp 8°C 80 1191
2026-04-28 20:50:15 Incorrect altimeter settings on landing 80 1191
2026-04-28 20:50:15 Incorrect altimeter settings on takeoff 80 1192
2026-04-28 20:50:26 Aircraft taxiing to apron 33 1193
2026-04-28 20:50:38 Aircraft at gate/stand, ground services are moving into position, disembarkation has begun. Remaining FOB 337kg FLYacars v1.3.4 7 1193
viserfly

ACARS DATA

DATE IAS GS ALTITUDE FUEL CONSUMED OAT FLIGHT STATUS
2026-04-28 19:37:49 62 65 1505 -99 14 TAKEOFF
2026-04-28 19:38:19 84 86 1879 -97 14 TAKEOFF
2026-04-28 19:38:49 100 103 2245 -95 13 TAKEOFF
2026-04-28 19:39:19 141 133 2514 -93 6 INITIAL CLIMB
2026-04-28 19:39:49 151 141 2801 -92 6 INITIAL CLIMB
2026-04-28 19:40:19 153 145 3063 -90 5 INITIAL CLIMB
2026-04-28 19:40:49 152 145 3317 -89 4 INITIAL CLIMB
2026-04-28 19:41:19 154 146 3569 -87 3 INITIAL CLIMB
2026-04-28 19:41:49 155 149 3830 -86 2 INITIAL CLIMB
2026-04-28 19:42:19 159 153 4091 -84 1 CLIMB
2026-04-28 19:42:49 154 149 4320 -82 1 CLIMB
2026-04-28 19:43:19 153 149 4574 -81 0 CLIMB
2026-04-28 19:43:49 154 151 4819 -79 0 CLIMB
2026-04-28 19:44:19 160 157 5076 -78 0 CLIMB
2026-04-28 19:44:49 155 154 5322 -76 -1 CLIMB
2026-04-28 19:45:19 152 152 5570 -75 -1 CLIMB
2026-04-28 19:45:49 151 153 5815 -73 -2 CLIMB
2026-04-28 19:46:19 154 157 6067 -72 -2 CLIMB
2026-04-28 19:46:49 151 154 6318 -70 -2 CLIMB
2026-04-28 19:47:19 153 155 6576 -69 -2 CLIMB
2026-04-28 19:47:49 152 171 6824 -68 -3 CLIMB
2026-04-28 19:48:19 151 169 7080 -66 -3 CLIMB
2026-04-28 19:48:49 150 168 7324 -65 -3 CLIMB
2026-04-28 19:49:19 148 166 7571 -63 -3 CLIMB
2026-04-28 19:49:49 152 170 7765 -62 -3 ENROUTE
2026-04-28 19:50:19 161 180 7776 -60 -3 ENROUTE
2026-04-28 19:50:49 161 181 7779 -59 -3 ENROUTE
2026-04-28 19:51:19 161 181 7780 -57 -3 ENROUTE
2026-04-28 19:51:49 162 181 7784 -56 -3 ENROUTE
2026-04-28 19:52:19 163 182 7784 -54 -3 ENROUTE
2026-04-28 19:52:49 163 183 7791 -53 -3 ENROUTE
2026-04-28 19:53:19 162 182 7783 -51 -3 ENROUTE
2026-04-28 19:53:49 163 182 7782 -50 -3 ENROUTE
2026-04-28 19:54:19 162 180 7786 -49 -3 ENROUTE
2026-04-28 19:54:49 162 180 7779 -47 -2 ENROUTE
2026-04-28 19:55:19 162 181 7785 -46 -2 ENROUTE
2026-04-28 19:55:49 161 180 7779 -44 -2 ENROUTE
2026-04-28 19:56:19 160 179 7782 -43 -2 ENROUTE
2026-04-28 19:56:49 159 178 7786 -41 -2 ENROUTE
2026-04-28 19:57:19 160 179 7791 -40 -2 ENROUTE
2026-04-28 19:57:49 161 180 7789 -38 -2 ENROUTE
2026-04-28 19:58:19 161 181 7790 -37 -2 ENROUTE
2026-04-28 19:58:49 163 182 7791 -36 -2 ENROUTE
2026-04-28 19:59:19 161 180 7789 -34 -2 ENROUTE
2026-04-28 19:59:49 162 182 7791 -33 -2 ENROUTE
2026-04-28 20:00:19 162 182 7792 -31 -2 ENROUTE
2026-04-28 20:00:49 162 180 7796 -30 -2 ENROUTE
2026-04-28 20:01:19 161 180 7795 -28 -2 ENROUTE
2026-04-28 20:01:49 162 180 7802 -27 -2 ENROUTE
2026-04-28 20:02:19 161 179 7797 -25 -2 ENROUTE
2026-04-28 20:02:49 161 179 7797 -24 -2 ENROUTE
2026-04-28 20:03:19 162 181 7800 -22 -2 ENROUTE
2026-04-28 20:03:49 162 164 7803 -21 -2 ENROUTE
2026-04-28 20:04:19 163 165 7808 -20 -2 ENROUTE
2026-04-28 20:04:49 163 165 7810 -18 -2 ENROUTE
2026-04-28 20:05:19 162 163 7806 -17 -2 ENROUTE
2026-04-28 20:05:49 162 165 7812 -15 -2 ENROUTE
2026-04-28 20:06:19 163 165 7810 -14 -2 ENROUTE
2026-04-28 20:06:49 164 165 7813 -12 -2 ENROUTE
2026-04-28 20:07:19 161 163 7806 -11 -2 ENROUTE
2026-04-28 20:07:49 159 161 7807 -10 -2 ENROUTE
2026-04-28 20:08:19 161 164 7807 -8 -2 ENROUTE
2026-04-28 20:08:49 162 164 7806 -7 -2 ENROUTE
2026-04-28 20:09:19 160 163 7804 -5 -2 ENROUTE
2026-04-28 20:09:49 161 163 7804 -4 -2 ENROUTE
2026-04-28 20:10:19 161 163 7805 -2 -2 ENROUTE
2026-04-28 20:10:49 162 164 7811 -1 -2 ENROUTE
2026-04-28 20:11:19 162 163 7807 1 -2 ENROUTE
2026-04-28 20:11:49 162 164 7808 2 -2 ENROUTE
2026-04-28 20:12:19 161 164 7810 4 -2 ENROUTE
2026-04-28 20:12:49 163 163 7812 5 -2 ENROUTE
2026-04-28 20:13:19 162 164 7809 6 -2 ENROUTE
2026-04-28 20:13:49 162 162 7807 8 -2 ENROUTE
2026-04-28 20:14:19 161 163 7808 9 -2 ENROUTE
2026-04-28 20:14:49 163 164 7810 11 -2 ENROUTE
2026-04-28 20:15:19 161 162 7807 12 -2 ENROUTE
2026-04-28 20:15:49 163 164 7813 14 -2 ENROUTE
2026-04-28 20:16:19 162 163 7806 15 -2 ENROUTE
2026-04-28 20:16:49 164 165 7810 17 -2 ENROUTE
2026-04-28 20:17:19 163 164 7817 18 -2 ENROUTE
2026-04-28 20:17:49 164 166 7815 20 -2 ENROUTE
2026-04-28 20:18:19 163 165 7811 21 -2 ENROUTE
2026-04-28 20:18:49 162 163 7814 22 -2 ENROUTE
2026-04-28 20:19:19 162 164 7816 24 -2 ENROUTE
2026-04-28 20:19:49 164 166 7821 25 -2 ENROUTE
2026-04-28 20:20:19 163 165 7816 27 -2 ENROUTE
2026-04-28 20:20:49 163 165 7815 28 -2 ENROUTE
2026-04-28 20:21:19 164 166 7815 30 -2 ENROUTE
2026-04-28 20:21:49 166 168 7819 31 -2 ENROUTE
2026-04-28 20:22:19 164 166 7818 33 -2 ENROUTE
2026-04-28 20:22:49 162 165 7814 34 -2 ENROUTE
2026-04-28 20:23:19 164 166 7815 36 -2 ENROUTE
2026-04-28 20:23:49 162 163 7816 37 -3 ENROUTE
2026-04-28 20:24:19 162 163 7817 38 -3 ENROUTE
2026-04-28 20:24:49 162 163 7816 40 -3 ENROUTE
2026-04-28 20:25:19 164 166 7820 41 -3 ENROUTE
2026-04-28 20:25:49 163 165 7822 43 -3 ENROUTE
2026-04-28 20:26:19 163 164 7817 44 -3 ENROUTE
2026-04-28 20:26:49 163 165 7830 46 -3 ENROUTE
2026-04-28 20:27:19 167 168 7832 47 -3 ENROUTE
2026-04-28 20:27:49 165 167 7829 49 -3 ENROUTE
2026-04-28 20:28:19 165 167 7824 50 -3 ENROUTE
2026-04-28 20:28:49 164 166 7824 52 -3 ENROUTE
2026-04-28 20:29:19 164 165 7824 53 -3 ENROUTE
2026-04-28 20:29:49 161 163 7828 54 -3 ENROUTE
2026-04-28 20:30:19 164 166 7830 56 -3 ENROUTE
2026-04-28 20:30:49 164 165 7823 57 -3 ENROUTE
2026-04-28 20:31:19 162 163 7828 59 -3 ENROUTE
2026-04-28 20:31:49 162 162 7823 60 -3 ENROUTE
2026-04-28 20:32:19 162 162 7833 62 -3 ENROUTE
2026-04-28 20:32:49 164 164 7830 63 -3 ENROUTE
2026-04-28 20:33:19 163 163 7833 65 -3 ENROUTE
2026-04-28 20:33:49 166 166 7840 66 -3 ENROUTE
2026-04-28 20:34:19 166 166 7835 68 -3 ENROUTE
2026-04-28 20:34:49 165 165 7839 69 -3 ENROUTE
2026-04-28 20:35:19 165 165 7841 71 -3 ENROUTE
2026-04-28 20:35:49 164 165 7834 72 -3 ENROUTE
2026-04-28 20:36:19 162 163 7830 73 -3 ENROUTE
2026-04-28 20:36:49 162 163 7830 75 -3 ENROUTE
2026-04-28 20:37:19 163 163 7840 76 -3 ENROUTE
2026-04-28 20:37:49 162 163 7832 78 -3 ENROUTE
2026-04-28 20:38:19 161 162 7831 79 -3 ENROUTE
2026-04-28 20:38:49 161 161 7835 83 -3 ENROUTE
2026-04-28 20:39:19 162 163 7838 89 -3 ENROUTE
2026-04-28 20:39:49 162 163 7841 94 -3 ENROUTE
2026-04-28 20:40:19 165 167 7833 100 -4 ENROUTE
2026-04-28 20:40:49 162 163 7846 106 -4 ENROUTE
2026-04-28 20:41:19 162 163 7860 112 -4 ENROUTE
2026-04-28 20:41:49 161 162 7847 118 -4 ENROUTE
2026-04-28 20:42:19 165 167 7850 124 -4 ENROUTE
2026-04-28 20:42:49 166 167 7845 129 -4 ENROUTE
2026-04-28 20:43:19 161 165 7850 135 -4 ENROUTE
2026-04-28 20:43:49 162 165 7851 141 -4 ENROUTE
2026-04-28 20:44:19 161 164 7854 147 -4 ENROUTE
2026-04-28 20:44:49 161 165 7858 153 -5 ENROUTE
2026-04-28 20:45:19 163 167 7869 158 -5 ENROUTE
2026-04-28 20:45:49 162 162 7869 164 -5 ENROUTE
2026-04-28 20:46:19 138 132 6642 168 -4 DESCENT
2026-04-28 20:46:49 137 128 5479 170 -3 DESCENT
2026-04-28 20:47:19 139 130 4191 172 0 DESCENT
2026-04-28 20:47:49 133 123 3511 174 1 DESCENT
2026-04-28 20:48:19 130 120 2581 176 4 DESCENT
2026-04-28 20:48:49 113 104 1976 178 7 ON FINAL
2026-04-28 20:49:19 93 86 1543 179 8 ON FINAL
2026-04-28 20:49:49 85 76 1332 179 8 ON FINAL
2026-04-28 20:50:19 74 65 1192 180 8 ON FINAL
  • Join our VA!

    It has been 11 years of great learning, friendships, and stories.

  • Sign up now!